OPLA/LHE METAR and TAF weather

Enter ICAO airport designator
Station Type Date Time Source
OPLA METAR 2020/07/10 22:55 UTC NOAA

OPLA 102255Z 14010KT 4000 FU SCT040 SCT100 27/22 Q0995 NOSIG RMK QFE968 RMK A29.41


Station Type Date Time Source
OPLA Decoded METAR 2020/07/10 22:55 UTC NOAA

Lahore Airport, Pakistan (OPLA) 31-31N 074-24E 217M
Jul 10, 2020 - 06:55 PM EDT / 2020.07.10 2255 UTC
Wind: from the SE (140 degrees) at 12 MPH (10 KT):0
Visibility: 2 mile(s):0
Sky conditions: partly cloudy
Weather: smoke
Temperature: 80 F (27 C)
Dew Point: 71 F (22 C)
Relative Humidity: 74%
Pressure (altimeter): 29.38 in. Hg (0995 hPa)
ob: OPLA 102255Z 14010KT 4000 FU SCT040 SCT100 27/22 Q0995 NOSIG RMK QFE968 RMK A29.41
cycle: 23

Station Type Date Time Source
OPLA TAF 2020/07/10 18:30 UTC NOAA

TAF OPLA 101545Z 1018/1124 12010KT 4000 FU SCT040 SCT100 TX38/1110Z TN28/1024Z
TEMPO 1100/1104 34020G40KT 1500 TSRA FEW030CB SCT040 OVC100
TEMPO 1110/1115 34020G40KT 1500 TSRA FEW030CB SCT040 OVC100

Example: see airport list